sensor_id;sensor_type;location;lat;lon;timestamp;P1;durP1;ratioP1;P2;durP2;ratioP2
65558;SDS011;52203;51.998;5.140;2023-04-15T00:01:21;10.07;;;4.70;;
65558;SDS011;52203;51.998;5.140;2023-04-15T00:03:49;7.68;;;4.97;;
65558;SDS011;52203;51.998;5.140;2023-04-15T00:06:16;9.70;;;4.90;;
65558;SDS011;52203;51.998;5.140;2023-04-15T00:08:41;7.80;;;4.85;;
65558;SDS011;52203;51.998;5.140;2023-04-15T00:11:07;10.00;;;4.70;;
65558;SDS011;52203;51.998;5.140;2023-04-15T00:13:33;8.85;;;5.10;;
65558;SDS011;52203;51.998;5.140;2023-04-15T00:15:58;7.60;;;4.80;;
65558;SDS011;52203;51.998;5.140;2023-04-15T00:18:24;9.93;;;4.57;;
65558;SDS011;52203;51.998;5.140;2023-04-15T00:20:50;9.32;;;4.82;;
65558;SDS011;52203;51.998;5.140;2023-04-15T00:23:16;8.20;;;4.47;;
65558;SDS011;52203;51.998;5.140;2023-04-15T00:25:42;8.75;;;4.70;;
65558;SDS011;52203;51.998;5.140;2023-04-15T00:28:07;10.18;;;4.38;;
65558;SDS011;52203;51.998;5.140;2023-04-15T00:30:33;8.25;;;4.65;;
65558;SDS011;52203;51.998;5.140;2023-04-15T00:32:59;10.07;;;5.03;;
65558;SDS011;52203;51.998;5.140;2023-04-15T00:35:26;11.30;;;4.43;;
65558;SDS011;52203;51.998;5.140;2023-04-15T00:37:51;10.00;;;4.57;;
65558;SDS011;52203;51.998;5.140;2023-04-15T00:40:18;7.75;;;4.47;;
65558;SDS011;52203;51.998;5.140;2023-04-15T00:42:45;9.40;;;5.18;;
65558;SDS011;52203;51.998;5.140;2023-04-15T00:45:11;9.82;;;4.90;;
65558;SDS011;52203;51.998;5.140;2023-04-15T00:47:38;9.50;;;4.68;;
65558;SDS011;52203;51.998;5.140;2023-04-15T00:50:06;11.55;;;5.50;;
65558;SDS011;52203;51.998;5.140;2023-04-15T00:52:32;9.55;;;4.65;;
65558;SDS011;52203;51.998;5.140;2023-04-15T00:54:58;9.68;;;5.22;;
65558;SDS011;52203;51.998;5.140;2023-04-15T00:57:24;9.75;;;4.75;;
65558;SDS011;52203;51.998;5.140;2023-04-15T00:59:51;7.03;;;4.78;;
65558;SDS011;52203;51.998;5.140;2023-04-15T01:02:18;11.00;;;5.20;;
65558;SDS011;52203;51.998;5.140;2023-04-15T01:04:43;10.52;;;5.72;;
65558;SDS011;52203;51.998;5.140;2023-04-15T01:07:09;8.93;;;5.28;;
65558;SDS011;52203;51.998;5.140;2023-04-15T01:09:35;8.88;;;5.18;;
65558;SDS011;52203;51.998;5.140;2023-04-15T01:12:00;9.15;;;5.43;;
65558;SDS011;52203;51.998;5.140;2023-04-15T01:14:26;11.75;;;5.75;;
65558;SDS011;52203;51.998;5.140;2023-04-15T01:16:53;10.98;;;5.30;;
65558;SDS011;52203;51.998;5.140;2023-04-15T01:19:18;9.32;;;5.00;;
65558;SDS011;52203;51.998;5.140;2023-04-15T01:21:44;11.48;;;4.93;;
65558;SDS011;52203;51.998;5.140;2023-04-15T01:24:10;8.15;;;4.97;;
65558;SDS011;52203;51.998;5.140;2023-04-15T01:26:37;9.48;;;5.15;;
65558;SDS011;52203;51.998;5.140;2023-04-15T01:29:03;10.52;;;5.35;;
65558;SDS011;52203;51.998;5.140;2023-04-15T01:31:28;10.52;;;5.80;;
65558;SDS011;52203;51.998;5.140;2023-04-15T01:33:54;9.65;;;5.28;;
65558;SDS011;52203;51.998;5.140;2023-04-15T01:36:20;9.45;;;5.32;;
65558;SDS011;52203;51.998;5.140;2023-04-15T01:38:45;10.48;;;5.22;;
65558;SDS011;52203;51.998;5.140;2023-04-15T01:41:12;9.85;;;5.57;;
65558;SDS011;52203;51.998;5.140;2023-04-15T01:43:38;10.57;;;6.00;;
65558;SDS011;52203;51.998;5.140;2023-04-15T01:46:04;10.80;;;5.95;;
65558;SDS011;52203;51.998;5.140;2023-04-15T01:48:30;10.63;;;5.70;;
65558;SDS011;52203;51.998;5.140;2023-04-15T01:50:56;10.32;;;5.82;;
65558;SDS011;52203;51.998;5.140;2023-04-15T01:53:24;12.18;;;6.05;;
65558;SDS011;52203;51.998;5.140;2023-04-15T01:55:50;9.20;;;6.00;;
65558;SDS011;52203;51.998;5.140;2023-04-15T01:58:16;12.82;;;6.78;;
65558;SDS011;52203;51.998;5.140;2023-04-15T02:00:44;10.70;;;5.72;;
65558;SDS011;52203;51.998;5.140;2023-04-15T02:03:10;11.00;;;7.15;;
65558;SDS011;52203;51.998;5.140;2023-04-15T02:05:35;12.55;;;6.22;;
65558;SDS011;52203;51.998;5.140;2023-04-15T02:08:01;11.55;;;5.95;;
65558;SDS011;52203;51.998;5.140;2023-04-15T02:10:27;13.30;;;6.40;;
65558;SDS011;52203;51.998;5.140;2023-04-15T02:12:53;10.35;;;6.20;;
65558;SDS011;52203;51.998;5.140;2023-04-15T02:15:18;11.48;;;5.90;;
65558;SDS011;52203;51.998;5.140;2023-04-15T02:17:44;9.63;;;5.72;;
65558;SDS011;52203;51.998;5.140;2023-04-15T02:20:14;10.00;;;5.45;;
65558;SDS011;52203;51.998;5.140;2023-04-15T02:22:41;10.20;;;5.55;;
65558;SDS011;52203;51.998;5.140;2023-04-15T02:25:07;12.25;;;5.93;;
65558;SDS011;52203;51.998;5.140;2023-04-15T02:27:34;11.55;;;5.70;;
65558;SDS011;52203;51.998;5.140;2023-04-15T02:30:00;11.05;;;6.07;;
65558;SDS011;52203;51.998;5.140;2023-04-15T02:32:26;10.77;;;5.50;;
65558;SDS011;52203;51.998;5.140;2023-04-15T02:34:52;11.40;;;5.82;;
65558;SDS011;52203;51.998;5.140;2023-04-15T02:37:18;12.73;;;5.93;;
65558;SDS011;52203;51.998;5.140;2023-04-15T02:39:44;11.93;;;5.60;;
65558;SDS011;52203;51.998;5.140;2023-04-15T02:42:10;12.23;;;6.07;;
65558;SDS011;52203;51.998;5.140;2023-04-15T02:44:37;11.32;;;6.00;;
65558;SDS011;52203;51.998;5.140;2023-04-15T02:47:03;10.27;;;6.05;;
65558;SDS011;52203;51.998;5.140;2023-04-15T02:49:31;9.70;;;6.03;;
65558;SDS011;52203;51.998;5.140;2023-04-15T02:51:56;10.38;;;6.22;;
65558;SDS011;52203;51.998;5.140;2023-04-15T02:54:24;8.90;;;5.07;;
65558;SDS011;52203;51.998;5.140;2023-04-15T02:56:51;11.48;;;5.78;;
65558;SDS011;52203;51.998;5.140;2023-04-15T02:59:19;10.85;;;6.13;;
65558;SDS011;52203;51.998;5.140;2023-04-15T03:01:45;14.98;;;6.65;;
65558;SDS011;52203;51.998;5.140;2023-04-15T03:04:10;11.85;;;6.10;;
65558;SDS011;52203;51.998;5.140;2023-04-15T03:06:37;10.25;;;6.18;;
65558;SDS011;52203;51.998;5.140;2023-04-15T03:09:02;13.15;;;6.15;;
65558;SDS011;52203;51.998;5.140;2023-04-15T03:11:28;11.23;;;6.25;;
65558;SDS011;52203;51.998;5.140;2023-04-15T03:13:54;9.88;;;5.75;;
65558;SDS011;52203;51.998;5.140;2023-04-15T03:16:19;9.55;;;6.28;;
65558;SDS011;52203;51.998;5.140;2023-04-15T03:18:45;10.68;;;5.97;;
65558;SDS011;52203;51.998;5.140;2023-04-15T03:21:10;10.77;;;5.80;;
65558;SDS011;52203;51.998;5.140;2023-04-15T03:23:36;10.20;;;5.70;;
65558;SDS011;52203;51.998;5.140;2023-04-15T03:26:01;12.40;;;5.85;;
65558;SDS011;52203;51.998;5.140;2023-04-15T03:28:28;10.70;;;6.07;;
65558;SDS011;52203;51.998;5.140;2023-04-15T03:30:54;13.70;;;6.20;;
65558;SDS011;52203;51.998;5.140;2023-04-15T03:33:19;12.85;;;6.95;;
65558;SDS011;52203;51.998;5.140;2023-04-15T03:35:45;10.02;;;6.57;;
65558;SDS011;52203;51.998;5.140;2023-04-15T03:38:11;12.50;;;6.63;;
65558;SDS011;52203;51.998;5.140;2023-04-15T03:40:37;12.50;;;6.43;;
65558;SDS011;52203;51.998;5.140;2023-04-15T03:43:03;12.13;;;6.32;;
65558;SDS011;52203;51.998;5.140;2023-04-15T03:45:28;13.15;;;6.70;;
65558;SDS011;52203;51.998;5.140;2023-04-15T03:47:54;12.40;;;6.68;;
65558;SDS011;52203;51.998;5.140;2023-04-15T03:50:22;15.43;;;7.30;;
65558;SDS011;52203;51.998;5.140;2023-04-15T03:52:47;10.75;;;6.00;;
65558;SDS011;52203;51.998;5.140;2023-04-15T03:55:13;14.00;;;6.45;;
65558;SDS011;52203;51.998;5.140;2023-04-15T03:57:39;10.93;;;6.25;;
65558;SDS011;52203;51.998;5.140;2023-04-15T04:00:05;13.55;;;6.68;;
65558;SDS011;52203;51.998;5.140;2023-04-15T04:02:33;14.15;;;7.40;;
65558;SDS011;52203;51.998;5.140;2023-04-15T04:04:58;11.05;;;6.40;;
65558;SDS011;52203;51.998;5.140;2023-04-15T04:07:24;12.93;;;6.70;;
65558;SDS011;52203;51.998;5.140;2023-04-15T04:09:50;13.77;;;7.10;;
65558;SDS011;52203;51.998;5.140;2023-04-15T04:12:16;11.32;;;6.53;;
65558;SDS011;52203;51.998;5.140;2023-04-15T04:14:41;14.02;;;6.63;;
65558;SDS011;52203;51.998;5.140;2023-04-15T04:17:07;11.32;;;6.47;;
65558;SDS011;52203;51.998;5.140;2023-04-15T04:19:32;13.10;;;6.63;;
65558;SDS011;52203;51.998;5.140;2023-04-15T04:21:58;13.32;;;6.72;;
65558;SDS011;52203;51.998;5.140;2023-04-15T04:24:27;14.07;;;6.75;;
65558;SDS011;52203;51.998;5.140;2023-04-15T04:26:52;11.90;;;6.60;;
65558;SDS011;52203;51.998;5.140;2023-04-15T04:29:21;11.07;;;6.40;;
65558;SDS011;52203;51.998;5.140;2023-04-15T04:31:47;11.75;;;6.28;;
65558;SDS011;52203;51.998;5.140;2023-04-15T04:34:13;13.02;;;6.30;;
65558;SDS011;52203;51.998;5.140;2023-04-15T04:36:39;12.38;;;6.53;;
65558;SDS011;52203;51.998;5.140;2023-04-15T04:39:04;15.10;;;7.10;;
65558;SDS011;52203;51.998;5.140;2023-04-15T04:41:30;12.40;;;7.30;;
65558;SDS011;52203;51.998;5.140;2023-04-15T04:43:56;13.80;;;6.78;;
65558;SDS011;52203;51.998;5.140;2023-04-15T04:46:21;14.13;;;6.97;;
65558;SDS011;52203;51.998;5.140;2023-04-15T04:48:47;13.65;;;6.80;;
65558;SDS011;52203;51.998;5.140;2023-04-15T04:51:13;11.45;;;6.78;;
65558;SDS011;52203;51.998;5.140;2023-04-15T04:53:39;12.73;;;6.18;;
65558;SDS011;52203;51.998;5.140;2023-04-15T04:56:16;11.93;;;6.70;;
65558;SDS011;52203;51.998;5.140;2023-04-15T04:58:49;12.75;;;6.38;;
65558;SDS011;52203;51.998;5.140;2023-04-15T05:01:20;9.95;;;6.10;;
65558;SDS011;52203;51.998;5.140;2023-04-15T05:03:48;14.55;;;6.82;;
65558;SDS011;52203;51.998;5.140;2023-04-15T05:06:13;18.30;;;7.68;;
65558;SDS011;52203;51.998;5.140;2023-04-15T05:08:39;14.32;;;7.00;;
65558;SDS011;52203;51.998;5.140;2023-04-15T05:11:05;13.70;;;7.50;;
65558;SDS011;52203;51.998;5.140;2023-04-15T05:13:31;11.95;;;6.72;;
65558;SDS011;52203;51.998;5.140;2023-04-15T05:15:56;14.10;;;6.88;;
65558;SDS011;52203;51.998;5.140;2023-04-15T05:18:22;14.57;;;7.05;;
65558;SDS011;52203;51.998;5.140;2023-04-15T05:20:47;14.85;;;6.45;;
65558;SDS011;52203;51.998;5.140;2023-04-15T05:23:14;11.82;;;6.70;;
65558;SDS011;52203;51.998;5.140;2023-04-15T05:25:40;13.93;;;6.32;;
65558;SDS011;52203;51.998;5.140;2023-04-15T05:28:06;13.50;;;7.20;;
65558;SDS011;52203;51.998;5.140;2023-04-15T05:30:31;11.50;;;6.28;;
65558;SDS011;52203;51.998;5.140;2023-04-15T05:32:57;16.30;;;7.00;;
65558;SDS011;52203;51.998;5.140;2023-04-15T05:35:22;13.27;;;6.82;;
65558;SDS011;52203;51.998;5.140;2023-04-15T05:37:48;12.35;;;6.82;;
65558;SDS011;52203;51.998;5.140;2023-04-15T05:40:13;13.75;;;7.30;;
65558;SDS011;52203;51.998;5.140;2023-04-15T05:42:39;12.80;;;6.63;;
65558;SDS011;52203;51.998;5.140;2023-04-15T05:45:16;13.80;;;6.93;;
65558;SDS011;52203;51.998;5.140;2023-04-15T05:48:10;12.75;;;6.20;;
65558;SDS011;52203;51.998;5.140;2023-04-15T05:50:41;16.85;;;7.07;;
65558;SDS011;52203;51.998;5.140;2023-04-15T05:53:07;15.00;;;7.47;;
65558;SDS011;52203;51.998;5.140;2023-04-15T05:55:33;13.65;;;6.80;;
65558;SDS011;52203;51.998;5.140;2023-04-15T05:57:58;15.02;;;8.00;;
65558;SDS011;52203;51.998;5.140;2023-04-15T06:00:24;13.95;;;7.68;;
65558;SDS011;52203;51.998;5.140;2023-04-15T06:02:50;14.07;;;6.85;;
65558;SDS011;52203;51.998;5.140;2023-04-15T06:05:15;14.38;;;7.55;;
65558;SDS011;52203;51.998;5.140;2023-04-15T06:07:42;12.23;;;6.68;;
65558;SDS011;52203;51.998;5.140;2023-04-15T06:10:08;13.13;;;7.43;;
65558;SDS011;52203;51.998;5.140;2023-04-15T06:12:34;12.40;;;7.55;;
65558;SDS011;52203;51.998;5.140;2023-04-15T06:15:00;12.45;;;7.38;;
65558;SDS011;52203;51.998;5.140;2023-04-15T06:17:25;10.93;;;6.72;;
65558;SDS011;52203;51.998;5.140;2023-04-15T06:19:51;13.50;;;6.93;;
65558;SDS011;52203;51.998;5.140;2023-04-15T06:22:20;11.52;;;6.88;;
65558;SDS011;52203;51.998;5.140;2023-04-15T06:24:47;10.75;;;6.45;;
65558;SDS011;52203;51.998;5.140;2023-04-15T06:27:14;13.55;;;7.00;;
65558;SDS011;52203;51.998;5.140;2023-04-15T06:29:40;11.82;;;6.15;;
65558;SDS011;52203;51.998;5.140;2023-04-15T06:32:07;10.95;;;5.88;;
65558;SDS011;52203;51.998;5.140;2023-04-15T06:34:32;10.63;;;6.50;;
65558;SDS011;52203;51.998;5.140;2023-04-15T06:36:58;11.00;;;5.68;;
65558;SDS011;52203;51.998;5.140;2023-04-15T06:39:24;11.13;;;6.22;;
65558;SDS011;52203;51.998;5.140;2023-04-15T06:41:50;10.05;;;5.90;;
65558;SDS011;52203;51.998;5.140;2023-04-15T06:44:16;10.05;;;6.07;;
65558;SDS011;52203;51.998;5.140;2023-04-15T06:46:42;10.55;;;6.07;;
65558;SDS011;52203;51.998;5.140;2023-04-15T06:49:08;9.80;;;5.53;;
65558;SDS011;52203;51.998;5.140;2023-04-15T06:51:34;11.27;;;6.43;;
65558;SDS011;52203;51.998;5.140;2023-04-15T06:54:00;9.73;;;6.43;;
65558;SDS011;52203;51.998;5.140;2023-04-15T06:56:26;10.60;;;5.57;;
65558;SDS011;52203;51.998;5.140;2023-04-15T06:58:52;9.80;;;6.07;;
65558;SDS011;52203;51.998;5.140;2023-04-15T07:01:17;12.05;;;6.32;;
65558;SDS011;52203;51.998;5.140;2023-04-15T07:03:43;9.48;;;6.07;;
65558;SDS011;52203;51.998;5.140;2023-04-15T07:06:09;9.93;;;5.90;;
65558;SDS011;52203;51.998;5.140;2023-04-15T07:08:34;9.85;;;6.13;;
65558;SDS011;52203;51.998;5.140;2023-04-15T07:11:00;10.35;;;5.65;;
65558;SDS011;52203;51.998;5.140;2023-04-15T07:13:26;10.60;;;6.20;;
65558;SDS011;52203;51.998;5.140;2023-04-15T07:15:51;9.48;;;6.38;;
65558;SDS011;52203;51.998;5.140;2023-04-15T07:18:17;8.73;;;5.60;;
65558;SDS011;52203;51.998;5.140;2023-04-15T07:20:42;10.40;;;5.80;;
65558;SDS011;52203;51.998;5.140;2023-04-15T07:23:08;10.95;;;6.07;;
65558;SDS011;52203;51.998;5.140;2023-04-15T07:25:33;8.77;;;5.88;;
65558;SDS011;52203;51.998;5.140;2023-04-15T07:27:59;10.15;;;6.15;;
65558;SDS011;52203;51.998;5.140;2023-04-15T07:30:28;11.23;;;6.15;;
65558;SDS011;52203;51.998;5.140;2023-04-15T07:32:54;12.40;;;6.90;;
65558;SDS011;52203;51.998;5.140;2023-04-15T07:35:20;12.35;;;6.60;;
65558;SDS011;52203;51.998;5.140;2023-04-15T07:37:46;11.52;;;6.65;;
65558;SDS011;52203;51.998;5.140;2023-04-15T07:40:12;11.52;;;6.47;;
65558;SDS011;52203;51.998;5.140;2023-04-15T07:42:38;9.20;;;6.10;;
65558;SDS011;52203;51.998;5.140;2023-04-15T07:45:04;8.77;;;5.78;;
65558;SDS011;52203;51.998;5.140;2023-04-15T07:47:30;9.05;;;5.55;;
65558;SDS011;52203;51.998;5.140;2023-04-15T07:49:56;8.50;;;5.43;;
65558;SDS011;52203;51.998;5.140;2023-04-15T07:52:21;11.05;;;5.50;;
65558;SDS011;52203;51.998;5.140;2023-04-15T07:54:47;11.68;;;6.10;;
65558;SDS011;52203;51.998;5.140;2023-04-15T07:57:12;8.65;;;5.05;;
65558;SDS011;52203;51.998;5.140;2023-04-15T07:59:38;8.68;;;5.05;;
65558;SDS011;52203;51.998;5.140;2023-04-15T08:02:03;9.32;;;5.82;;
65558;SDS011;52203;51.998;5.140;2023-04-15T08:04:29;10.00;;;5.13;;
65558;SDS011;52203;51.998;5.140;2023-04-15T08:06:55;7.60;;;4.63;;
65558;SDS011;52203;51.998;5.140;2023-04-15T08:09:20;8.05;;;4.45;;
65558;SDS011;52203;51.998;5.140;2023-04-15T08:11:47;9.90;;;5.22;;
65558;SDS011;52203;51.998;5.140;2023-04-15T08:14:13;8.07;;;4.22;;
65558;SDS011;52203;51.998;5.140;2023-04-15T08:16:39;7.82;;;4.30;;
65558;SDS011;52203;51.998;5.140;2023-04-15T08:19:05;7.18;;;3.97;;
65558;SDS011;52203;51.998;5.140;2023-04-15T08:21:31;8.02;;;4.28;;
65558;SDS011;52203;51.998;5.140;2023-04-15T08:23:56;8.65;;;4.55;;
65558;SDS011;52203;51.998;5.140;2023-04-15T08:26:22;9.23;;;4.00;;
65558;SDS011;52203;51.998;5.140;2023-04-15T08:28:48;7.65;;;4.10;;
65558;SDS011;52203;51.998;5.140;2023-04-15T08:31:14;7.03;;;4.00;;
65558;SDS011;52203;51.998;5.140;2023-04-15T08:33:41;7.55;;;4.05;;
65558;SDS011;52203;51.998;5.140;2023-04-15T08:36:06;7.07;;;4.22;;
65558;SDS011;52203;51.998;5.140;2023-04-15T08:38:32;9.25;;;3.85;;
65558;SDS011;52203;51.998;5.140;2023-04-15T08:40:59;6.57;;;4.10;;
65558;SDS011;52203;51.998;5.140;2023-04-15T08:43:27;6.88;;;3.67;;
65558;SDS011;52203;51.998;5.140;2023-04-15T08:45:59;7.85;;;4.22;;
65558;SDS011;52203;51.998;5.140;2023-04-15T08:48:27;6.72;;;4.25;;
65558;SDS011;52203;51.998;5.140;2023-04-15T08:50:55;6.93;;;4.18;;
65558;SDS011;52203;51.998;5.140;2023-04-15T08:53:21;6.35;;;3.88;;
65558;SDS011;52203;51.998;5.140;2023-04-15T08:55:50;7.50;;;4.15;;
65558;SDS011;52203;51.998;5.140;2023-04-15T08:58:16;7.45;;;3.80;;
65558;SDS011;52203;51.998;5.140;2023-04-15T09:00:43;6.30;;;3.42;;
65558;SDS011;52203;51.998;5.140;2023-04-15T09:03:09;7.65;;;3.00;;
65558;SDS011;52203;51.998;5.140;2023-04-15T09:05:35;5.90;;;2.97;;
65558;SDS011;52203;51.998;5.140;2023-04-15T09:08:01;7.18;;;3.17;;
65558;SDS011;52203;51.998;5.140;2023-04-15T09:10:28;6.32;;;3.40;;
65558;SDS011;52203;51.998;5.140;2023-04-15T09:12:54;6.38;;;2.83;;
65558;SDS011;52203;51.998;5.140;2023-04-15T09:15:20;5.53;;;3.08;;
65558;SDS011;52203;51.998;5.140;2023-04-15T09:17:46;6.45;;;3.03;;
65558;SDS011;52203;51.998;5.140;2023-04-15T09:20:15;7.18;;;3.47;;
65558;SDS011;52203;51.998;5.140;2023-04-15T09:22:45;6.07;;;3.33;;
65558;SDS011;52203;51.998;5.140;2023-04-15T09:27:53;6.15;;;3.00;;
65558;SDS011;52203;51.998;5.140;2023-04-15T09:30:20;7.25;;;3.35;;
65558;SDS011;52203;51.998;5.140;2023-04-15T09:32:53;8.10;;;3.90;;
65558;SDS011;52203;51.998;5.140;2023-04-15T09:35:20;7.97;;;3.97;;
65558;SDS011;52203;51.998;5.140;2023-04-15T09:37:46;6.28;;;3.47;;
65558;SDS011;52203;51.998;5.140;2023-04-15T09:40:13;4.78;;;2.88;;
65558;SDS011;52203;51.998;5.140;2023-04-15T09:42:54;6.97;;;2.80;;
65558;SDS011;52203;51.998;5.140;2023-04-15T09:45:21;4.15;;;2.45;;
65558;SDS011;52203;51.998;5.140;2023-04-15T09:47:47;5.28;;;2.33;;
65558;SDS011;52203;51.998;5.140;2023-04-15T09:50:15;4.75;;;2.53;;
65558;SDS011;52203;51.998;5.140;2023-04-15T09:52:41;3.95;;;2.22;;
65558;SDS011;52203;51.998;5.140;2023-04-15T09:55:07;5.78;;;2.30;;
65558;SDS011;52203;51.998;5.140;2023-04-15T09:57:34;4.25;;;2.35;;
65558;SDS011;52203;51.998;5.140;2023-04-15T10:00:01;3.60;;;2.05;;
65558;SDS011;52203;51.998;5.140;2023-04-15T10:02:30;5.28;;;2.28;;
65558;SDS011;52203;51.998;5.140;2023-04-15T10:04:56;7.25;;;2.65;;
65558;SDS011;52203;51.998;5.140;2023-04-15T10:07:22;5.10;;;2.40;;
65558;SDS011;52203;51.998;5.140;2023-04-15T10:09:48;5.32;;;2.70;;
65558;SDS011;52203;51.998;5.140;2023-04-15T10:12:17;5.40;;;2.90;;
65558;SDS011;52203;51.998;5.140;2023-04-15T10:14:44;5.60;;;2.85;;
65558;SDS011;52203;51.998;5.140;2023-04-15T10:17:16;6.38;;;3.10;;
65558;SDS011;52203;51.998;5.140;2023-04-15T10:19:42;4.95;;;3.17;;
65558;SDS011;52203;51.998;5.140;2023-04-15T10:22:09;7.07;;;2.88;;
65558;SDS011;52203;51.998;5.140;2023-04-15T10:24:34;4.55;;;2.75;;
65558;SDS011;52203;51.998;5.140;2023-04-15T10:27:02;5.63;;;3.00;;
65558;SDS011;52203;51.998;5.140;2023-04-15T10:29:30;6.50;;;3.00;;
65558;SDS011;52203;51.998;5.140;2023-04-15T10:31:56;5.93;;;3.05;;
65558;SDS011;52203;51.998;5.140;2023-04-15T10:34:23;6.75;;;3.35;;
65558;SDS011;52203;51.998;5.140;2023-04-15T10:36:49;5.70;;;3.22;;
65558;SDS011;52203;51.998;5.140;2023-04-15T10:42:10;4.15;;;2.30;;
65558;SDS011;52203;51.998;5.140;2023-04-15T10:44:50;5.28;;;2.53;;
65558;SDS011;52203;51.998;5.140;2023-04-15T10:47:20;5.32;;;2.47;;
65558;SDS011;52203;51.998;5.140;2023-04-15T10:49:47;4.50;;;2.38;;
65558;SDS011;52203;51.998;5.140;2023-04-15T10:52:15;5.05;;;2.05;;
65558;SDS011;52203;51.998;5.140;2023-04-15T10:54:48;4.18;;;2.17;;
65558;SDS011;52203;51.998;5.140;2023-04-15T10:57:15;5.30;;;2.40;;
65558;SDS011;52203;51.998;5.140;2023-04-15T11:00:08;4.65;;;2.58;;
65558;SDS011;52203;51.998;5.140;2023-04-15T11:05:05;5.43;;;2.33;;
65558;SDS011;52203;51.998;5.140;2023-04-15T11:07:32;4.53;;;2.40;;
65558;SDS011;52203;51.998;5.140;2023-04-15T11:12:38;4.75;;;2.60;;
65558;SDS011;52203;51.998;5.140;2023-04-15T11:17:51;4.03;;;2.47;;
65558;SDS011;52203;51.998;5.140;2023-04-15T11:20:17;4.78;;;2.72;;
65558;SDS011;52203;51.998;5.140;2023-04-15T11:22:46;4.28;;;2.65;;
65558;SDS011;52203;51.998;5.140;2023-04-15T11:25:33;4.95;;;3.03;;
65558;SDS011;52203;51.998;5.140;2023-04-15T11:27:59;5.18;;;3.10;;
65558;SDS011;52203;51.998;5.140;2023-04-15T11:30:27;4.55;;;2.45;;
65558;SDS011;52203;51.998;5.140;2023-04-15T11:33:03;7.88;;;3.10;;
65558;SDS011;52203;51.998;5.140;2023-04-15T11:35:30;5.50;;;3.00;;
65558;SDS011;52203;51.998;5.140;2023-04-15T11:37:56;5.05;;;2.35;;
65558;SDS011;52203;51.998;5.140;2023-04-15T11:40:26;6.68;;;2.85;;
65558;SDS011;52203;51.998;5.140;2023-04-15T11:45:55;5.15;;;2.30;;
65558;SDS011;52203;51.998;5.140;2023-04-15T11:48:25;6.07;;;2.47;;
65558;SDS011;52203;51.998;5.140;2023-04-15T11:50:55;5.22;;;2.83;;
65558;SDS011;52203;51.998;5.140;2023-04-15T11:53:22;5.88;;;2.78;;
65558;SDS011;52203;51.998;5.140;2023-04-15T11:55:49;4.50;;;2.28;;
65558;SDS011;52203;51.998;5.140;2023-04-15T12:00:49;4.55;;;2.42;;
65558;SDS011;52203;51.998;5.140;2023-04-15T12:11:38;3.75;;;2.13;;
65558;SDS011;52203;51.998;5.140;2023-04-15T12:17:00;3.45;;;1.80;;
65558;SDS011;52203;51.998;5.140;2023-04-15T12:19:33;5.22;;;1.77;;
65558;SDS011;52203;51.998;5.140;2023-04-15T12:22:01;2.90;;;2.05;;
65558;SDS011;52203;51.998;5.140;2023-04-15T12:24:32;3.53;;;1.90;;
65558;SDS011;52203;51.998;5.140;2023-04-15T12:27:02;3.55;;;1.67;;
65558;SDS011;52203;51.998;5.140;2023-04-15T12:29:30;3.22;;;1.85;;
65558;SDS011;52203;51.998;5.140;2023-04-15T12:31:57;4.43;;;1.88;;
65558;SDS011;52203;51.998;5.140;2023-04-15T12:34:36;3.55;;;1.95;;
65558;SDS011;52203;51.998;5.140;2023-04-15T12:37:28;3.70;;;1.83;;
65558;SDS011;52203;51.998;5.140;2023-04-15T12:39:53;3.25;;;1.67;;
65558;SDS011;52203;51.998;5.140;2023-04-15T12:42:19;4.85;;;2.20;;
65558;SDS011;52203;51.998;5.140;2023-04-15T12:44:44;5.30;;;2.00;;
65558;SDS011;52203;51.998;5.140;2023-04-15T12:47:11;4.28;;;1.85;;
65558;SDS011;52203;51.998;5.140;2023-04-15T12:49:36;4.38;;;1.92;;
65558;SDS011;52203;51.998;5.140;2023-04-15T12:52:03;2.97;;;1.60;;
65558;SDS011;52203;51.998;5.140;2023-04-15T12:54:30;4.35;;;1.88;;
65558;SDS011;52203;51.998;5.140;2023-04-15T12:56:56;4.43;;;2.63;;
65558;SDS011;52203;51.998;5.140;2023-04-15T12:59:22;4.65;;;2.00;;
65558;SDS011;52203;51.998;5.140;2023-04-15T13:01:48;3.58;;;2.22;;
65558;SDS011;52203;51.998;5.140;2023-04-15T13:04:15;3.38;;;1.98;;
65558;SDS011;52203;51.998;5.140;2023-04-15T13:06:41;4.25;;;2.13;;
65558;SDS011;52203;51.998;5.140;2023-04-15T13:09:06;4.80;;;2.15;;
65558;SDS011;52203;51.998;5.140;2023-04-15T13:11:32;4.43;;;2.20;;
65558;SDS011;52203;51.998;5.140;2023-04-15T13:14:02;4.63;;;2.38;;
65558;SDS011;52203;51.998;5.140;2023-04-15T13:16:29;4.25;;;2.17;;
65558;SDS011;52203;51.998;5.140;2023-04-15T13:18:56;3.97;;;2.35;;
65558;SDS011;52203;51.998;5.140;2023-04-15T13:21:22;4.95;;;2.58;;
65558;SDS011;52203;51.998;5.140;2023-04-15T13:23:48;4.50;;;2.30;;
65558;SDS011;52203;51.998;5.140;2023-04-15T13:26:17;4.07;;;2.25;;
65558;SDS011;52203;51.998;5.140;2023-04-15T13:28:43;5.47;;;2.28;;
65558;SDS011;52203;51.998;5.140;2023-04-15T13:31:08;3.92;;;1.88;;
65558;SDS011;52203;51.998;5.140;2023-04-15T13:33:34;5.88;;;2.10;;
65558;SDS011;52203;51.998;5.140;2023-04-15T13:35:59;4.20;;;1.70;;
65558;SDS011;52203;51.998;5.140;2023-04-15T13:38:25;3.53;;;1.70;;
65558;SDS011;52203;51.998;5.140;2023-04-15T13:40:50;3.40;;;1.63;;
65558;SDS011;52203;51.998;5.140;2023-04-15T13:43:16;2.95;;;1.55;;
65558;SDS011;52203;51.998;5.140;2023-04-15T13:45:42;2.53;;;1.38;;
65558;SDS011;52203;51.998;5.140;2023-04-15T13:48:08;3.63;;;1.92;;
65558;SDS011;52203;51.998;5.140;2023-04-15T13:50:33;5.28;;;2.05;;
65558;SDS011;52203;51.998;5.140;2023-04-15T13:52:59;4.30;;;1.65;;
65558;SDS011;52203;51.998;5.140;2023-04-15T13:55:24;4.10;;;1.80;;
65558;SDS011;52203;51.998;5.140;2023-04-15T13:57:50;3.08;;;1.50;;
65558;SDS011;52203;51.998;5.140;2023-04-15T14:00:16;3.05;;;1.60;;
65558;SDS011;52203;51.998;5.140;2023-04-15T14:02:41;4.97;;;1.73;;
65558;SDS011;52203;51.998;5.140;2023-04-15T14:05:07;3.45;;;1.50;;
65558;SDS011;52203;51.998;5.140;2023-04-15T14:07:33;3.38;;;1.63;;
65558;SDS011;52203;51.998;5.140;2023-04-15T14:09:59;2.30;;;1.45;;
65558;SDS011;52203;51.998;5.140;2023-04-15T14:12:24;2.95;;;1.30;;
65558;SDS011;52203;51.998;5.140;2023-04-15T14:14:50;1.98;;;1.27;;
65558;SDS011;52203;51.998;5.140;2023-04-15T14:17:15;4.13;;;1.30;;
65558;SDS011;52203;51.998;5.140;2023-04-15T14:19:41;5.20;;;1.40;;
65558;SDS011;52203;51.998;5.140;2023-04-15T14:22:06;3.00;;;1.15;;
65558;SDS011;52203;51.998;5.140;2023-04-15T14:24:32;5.55;;;1.58;;
65558;SDS011;52203;51.998;5.140;2023-04-15T14:26:57;2.10;;;1.10;;
65558;SDS011;52203;51.998;5.140;2023-04-15T14:29:23;2.30;;;1.40;;
65558;SDS011;52203;51.998;5.140;2023-04-15T14:31:49;2.42;;;1.20;;
65558;SDS011;52203;51.998;5.140;2023-04-15T14:34:15;2.45;;;1.45;;
65558;SDS011;52203;51.998;5.140;2023-04-15T14:36:41;3.20;;;1.50;;
65558;SDS011;52203;51.998;5.140;2023-04-15T14:39:07;3.45;;;1.30;;
65558;SDS011;52203;51.998;5.140;2023-04-15T14:41:33;3.17;;;1.48;;
65558;SDS011;52203;51.998;5.140;2023-04-15T14:43:59;3.53;;;1.15;;
65558;SDS011;52203;51.998;5.140;2023-04-15T14:46:24;3.83;;;1.80;;
65558;SDS011;52203;51.998;5.140;2023-04-15T14:48:50;4.80;;;1.00;;
65558;SDS011;52203;51.998;5.140;2023-04-15T14:51:16;3.30;;;1.20;;
65558;SDS011;52203;51.998;5.140;2023-04-15T14:53:42;3.75;;;1.60;;
65558;SDS011;52203;51.998;5.140;2023-04-15T14:56:08;3.88;;;1.55;;
65558;SDS011;52203;51.998;5.140;2023-04-15T14:58:33;2.80;;;1.35;;
65558;SDS011;52203;51.998;5.140;2023-04-15T15:00:59;4.53;;;1.45;;
65558;SDS011;52203;51.998;5.140;2023-04-15T15:03:26;4.28;;;1.55;;
65558;SDS011;52203;51.998;5.140;2023-04-15T15:05:52;4.97;;;1.52;;
65558;SDS011;52203;51.998;5.140;2023-04-15T15:08:17;4.05;;;1.40;;
65558;SDS011;52203;51.998;5.140;2023-04-15T15:10:43;4.75;;;1.27;;